createdAt,value
2023-03-31T00:00:28.997Z,7.15
2023-03-31T00:02:58.901Z,7.78
2023-03-31T00:05:26.999Z,7.53
2023-03-31T00:08:01.455Z,6.53
2023-03-31T00:10:32.240Z,5.88
2023-03-31T00:13:00.698Z,5.40
2023-03-31T00:15:28.439Z,5.32
2023-03-31T00:18:00.761Z,6.40
2023-03-31T00:20:28.585Z,7.63
2023-03-31T00:22:57.927Z,6.00
2023-03-31T00:25:25.205Z,6.10
2023-03-31T00:27:53.025Z,5.53
2023-03-31T00:30:20.321Z,6.50
2023-03-31T00:32:47.719Z,5.70
2023-03-31T00:35:15.293Z,7.25
2023-03-31T00:37:43.553Z,5.55
2023-03-31T00:40:11.336Z,6.07
2023-03-31T00:42:41.981Z,4.45
2023-03-31T00:50:37.931Z,5.95
2023-03-31T00:53:11.203Z,5.47
2023-03-31T00:55:42.701Z,5.65
2023-03-31T00:58:14.708Z,5.95
2023-03-31T01:00:43.261Z,5.10
2023-03-31T01:03:28.977Z,5.57
2023-03-31T01:05:58.997Z,5.60
2023-03-31T01:08:28.152Z,5.75
2023-03-31T01:10:57.812Z,6.10
2023-03-31T01:13:27.383Z,4.50
2023-03-31T01:15:55.034Z,5.75
2023-03-31T01:18:22.807Z,4.28
2023-03-31T01:21:19.034Z,5.22
2023-03-31T01:26:49.575Z,5.38
2023-03-31T01:32:34.312Z,4.82
2023-03-31T01:40:43.368Z,4.38
2023-03-31T01:51:34.695Z,5.50
2023-03-31T01:56:50.609Z,4.82
2023-03-31T01:59:24.272Z,5.25
2023-03-31T02:01:59.646Z,5.20
2023-03-31T02:04:32.856Z,4.38
2023-03-31T02:07:05.006Z,4.57
2023-03-31T02:09:35.962Z,6.22
2023-03-31T02:12:06.504Z,4.50
2023-03-31T02:14:34.306Z,4.72
2023-03-31T02:17:04.108Z,4.28
2023-03-31T02:19:36.053Z,4.30
2023-03-31T02:22:06.330Z,4.22
2023-03-31T02:24:35.117Z,3.65
2023-03-31T02:27:23.100Z,4.55
2023-03-31T02:29:50.966Z,5.45
2023-03-31T02:35:03.263Z,5.45
2023-03-31T02:37:31.125Z,5.70
2023-03-31T02:40:02.125Z,3.92
2023-03-31T02:42:29.854Z,3.78
2023-03-31T02:45:04.070Z,4.65
2023-03-31T02:47:31.449Z,4.53
2023-03-31T02:50:00.904Z,5.78
2023-03-31T02:55:20.038Z,4.20
2023-03-31T03:06:13.948Z,3.92
2023-03-31T03:14:48.636Z,3.72
2023-03-31T03:17:24.189Z,3.83
2023-03-31T03:19:54.444Z,3.85
2023-03-31T03:22:22.565Z,3.60
2023-03-31T03:24:51.042Z,3.63
2023-03-31T03:27:19.076Z,3.78
2023-03-31T03:29:47.771Z,3.10
2023-03-31T03:32:15.069Z,3.40
2023-03-31T03:34:42.343Z,3.45
2023-03-31T03:37:09.574Z,3.75
2023-03-31T03:39:36.794Z,3.30
2023-03-31T03:42:04.323Z,3.38
2023-03-31T03:44:31.578Z,2.85
2023-03-31T03:46:58.814Z,3.35
2023-03-31T03:49:26.099Z,3.88
2023-03-31T03:51:53.543Z,4.07
2023-03-31T03:54:20.826Z,4.95
2023-03-31T03:56:48.185Z,3.40
2023-03-31T03:59:15.482Z,3.47
2023-03-31T04:01:42.808Z,3.70
2023-03-31T04:04:10.182Z,3.55
2023-03-31T04:06:37.612Z,3.10
2023-03-31T04:09:05.098Z,2.80
2023-03-31T04:11:32.827Z,2.65
2023-03-31T04:14:00.163Z,2.97
2023-03-31T04:16:27.489Z,2.80
2023-03-31T04:18:56.985Z,3.95
2023-03-31T04:21:24.322Z,2.58
2023-03-31T04:23:59.080Z,2.70
2023-03-31T04:26:31.360Z,3.17
2023-03-31T04:29:00.605Z,2.85
2023-03-31T04:31:31.070Z,2.70
2023-03-31T04:34:02.750Z,3.65
2023-03-31T04:36:31.731Z,3.00
2023-03-31T04:38:59.487Z,3.63
2023-03-31T04:41:28.358Z,4.00
2023-03-31T04:43:55.767Z,3.10
2023-03-31T04:46:23.416Z,3.30
2023-03-31T04:48:50.669Z,2.80
2023-03-31T04:51:18.110Z,2.92
2023-03-31T04:53:45.655Z,2.90
2023-03-31T04:56:13.458Z,3.75
2023-03-31T04:58:40.833Z,3.50
2023-03-31T05:01:08.196Z,4.30
2023-03-31T05:03:35.724Z,3.80
2023-03-31T05:06:03.133Z,3.30
2023-03-31T05:08:30.459Z,3.40
2023-03-31T05:10:58.165Z,4.00
2023-03-31T05:13:25.620Z,3.90
2023-03-31T05:15:52.998Z,3.38
2023-03-31T05:18:20.305Z,4.05
2023-03-31T05:20:47.726Z,4.40
2023-03-31T05:23:15.053Z,2.80
2023-03-31T05:25:42.580Z,4.35
2023-03-31T05:28:10.971Z,4.47
2023-03-31T05:30:38.263Z,4.05
2023-03-31T05:33:05.507Z,3.80
2023-03-31T05:35:32.801Z,3.90
2023-03-31T05:38:00.146Z,5.30
2023-03-31T05:40:27.375Z,3.63
2023-03-31T05:42:54.623Z,3.75
2023-03-31T05:45:21.896Z,2.53
2023-03-31T05:47:49.203Z,3.28
2023-03-31T05:50:16.629Z,3.58
2023-03-31T05:52:43.899Z,3.80
2023-03-31T05:55:11.686Z,2.90
2023-03-31T05:57:39.720Z,3.08
2023-03-31T06:00:10.695Z,2.97
2023-03-31T06:02:38.270Z,3.60
2023-03-31T06:05:05.879Z,3.30
2023-03-31T06:07:33.112Z,3.92
2023-03-31T06:10:00.460Z,2.90
2023-03-31T06:12:28.019Z,3.65
2023-03-31T06:14:55.407Z,3.50
2023-03-31T06:17:22.699Z,3.70
2023-03-31T06:19:50.067Z,4.18
2023-03-31T06:22:17.517Z,3.72
2023-03-31T06:24:44.752Z,2.53
2023-03-31T06:27:12.296Z,2.88
2023-03-31T06:29:39.928Z,2.78
2023-03-31T06:32:07.250Z,2.70
2023-03-31T06:34:34.542Z,3.47
2023-03-31T06:37:01.820Z,3.10
2023-03-31T06:39:29.130Z,2.97
2023-03-31T06:41:56.555Z,2.83
2023-03-31T06:44:28.422Z,3.13
2023-03-31T06:46:55.847Z,3.67
2023-03-31T06:49:23.311Z,2.88
2023-03-31T06:51:50.996Z,3.15
2023-03-31T06:54:18.338Z,4.68
2023-03-31T06:56:45.653Z,3.20
2023-03-31T06:59:13.025Z,4.18
2023-03-31T07:01:42.742Z,3.15
2023-03-31T07:04:10.213Z,3.65
2023-03-31T07:06:37.526Z,3.13
2023-03-31T07:09:04.786Z,3.63
2023-03-31T07:11:32.352Z,3.95
2023-03-31T07:13:59.844Z,4.15
2023-03-31T07:16:27.065Z,4.85
2023-03-31T07:18:59.759Z,6.05
2023-03-31T07:21:27.080Z,4.18
2023-03-31T07:23:54.416Z,4.32
2023-03-31T07:26:21.685Z,5.05
2023-03-31T07:28:48.976Z,4.05
2023-03-31T07:31:16.321Z,4.13
2023-03-31T07:33:44.002Z,5.57
2023-03-31T07:36:13.812Z,4.10
2023-03-31T07:38:43.948Z,4.43
2023-03-31T07:41:12.900Z,4.60
2023-03-31T07:43:41.120Z,4.53
2023-03-31T07:46:19.161Z,3.90
2023-03-31T07:51:15.983Z,4.40
2023-03-31T07:53:43.346Z,5.05
2023-03-31T07:56:10.827Z,4.28
2023-03-31T07:58:38.113Z,4.13
2023-03-31T08:01:06.089Z,4.75
2023-03-31T08:03:34.778Z,5.45
2023-03-31T08:06:02.219Z,4.72
2023-03-31T08:08:29.465Z,6.13
2023-03-31T08:10:56.721Z,5.43
2023-03-31T08:13:23.938Z,4.32
2023-03-31T08:15:51.231Z,4.53
2023-03-31T08:18:18.650Z,5.18
2023-03-31T08:20:48.387Z,3.72
2023-03-31T08:23:16.918Z,4.70
2023-03-31T08:25:44.190Z,4.60
2023-03-31T08:28:14.284Z,4.88
2023-03-31T08:30:41.929Z,5.13
2023-03-31T08:33:09.807Z,5.07
2023-03-31T08:35:37.077Z,5.93
2023-03-31T08:38:04.789Z,4.85
2023-03-31T08:40:33.032Z,5.97
2023-03-31T08:43:06.934Z,5.43
2023-03-31T08:45:39.131Z,5.13
2023-03-31T08:51:04.222Z,4.90
2023-03-31T08:53:35.324Z,6.13
2023-03-31T08:56:05.142Z,6.38
2023-03-31T08:58:42.754Z,5.75
2023-03-31T09:12:10.911Z,6.03
2023-03-31T09:17:22.230Z,7.73
2023-03-31T09:19:56.586Z,5.95
2023-03-31T09:22:28.557Z,4.78
2023-03-31T09:25:15.018Z,5.38
2023-03-31T09:27:43.948Z,5.22
2023-03-31T09:32:53.659Z,5.07
2023-03-31T09:35:25.946Z,4.80
2023-03-31T09:37:54.493Z,4.88
2023-03-31T09:40:24.043Z,6.32
2023-03-31T09:42:59.079Z,5.25
2023-03-31T09:45:26.868Z,5.85
2023-03-31T09:47:55.732Z,5.10
2023-03-31T09:50:25.332Z,4.13
2023-03-31T09:52:55.692Z,4.90
2023-03-31T09:58:02.511Z,5.63
2023-03-31T10:00:30.058Z,4.32
2023-03-31T10:03:01.886Z,5.38
2023-03-31T10:05:36.862Z,5.20
2023-03-31T10:08:25.917Z,4.93
2023-03-31T10:13:53.435Z,5.95
2023-03-31T10:16:33.088Z,6.25
2023-03-31T10:19:28.669Z,5.53
2023-03-31T10:21:59.773Z,6.07
2023-03-31T10:24:37.950Z,5.05
2023-03-31T10:27:07.284Z,4.90
2023-03-31T10:29:35.108Z,5.22
2023-03-31T10:32:10.637Z,4.90
2023-03-31T10:34:42.005Z,6.10
2023-03-31T10:37:15.131Z,5.32
2023-03-31T10:39:44.226Z,6.82
2023-03-31T10:42:11.862Z,7.05
2023-03-31T10:44:39.759Z,6.72
2023-03-31T10:47:18.650Z,5.43
2023-03-31T10:49:50.102Z,7.05
2023-03-31T10:52:22.762Z,7.18
2023-03-31T10:54:53.966Z,6.97
2023-03-31T10:57:29.988Z,7.22
2023-03-31T11:00:09.376Z,7.13
2023-03-31T11:08:31.438Z,7.22
2023-03-31T11:20:05.964Z,6.13
2023-03-31T11:23:03.454Z,6.03
2023-03-31T11:25:40.675Z,5.40
2023-03-31T11:31:40.624Z,5.97
2023-03-31T11:34:36.029Z,7.70
2023-03-31T11:40:28.016Z,11.02
2023-03-31T11:43:01.097Z,5.72
2023-03-31T11:48:14.920Z,5.95
2023-03-31T11:50:44.728Z,4.85
2023-03-31T11:53:17.796Z,5.55
2023-03-31T11:55:47.363Z,4.50
2023-03-31T11:58:22.542Z,4.97
2023-03-31T12:00:58.794Z,4.75
2023-03-31T12:06:08.717Z,5.93
2023-03-31T12:08:40.876Z,5.38
2023-03-31T12:16:46.297Z,4.60
2023-03-31T12:19:23.403Z,4.55
2023-03-31T12:21:56.006Z,4.10
2023-03-31T12:24:23.240Z,4.18
2023-03-31T12:32:15.612Z,4.35
2023-03-31T12:40:06.451Z,4.97
2023-03-31T12:45:31.494Z,4.30
2023-03-31T12:56:22.112Z,5.75
2023-03-31T12:58:49.453Z,4.47
2023-03-31T13:04:17.680Z,5.03
2023-03-31T13:06:51.180Z,5.15
2023-03-31T13:11:55.561Z,5.45
2023-03-31T13:14:26.896Z,5.30
2023-03-31T13:17:14.164Z,6.00
2023-03-31T13:19:42.147Z,5.30
2023-03-31T13:22:30.620Z,5.60
2023-03-31T13:25:34.978Z,4.82
2023-03-31T13:28:26.255Z,4.57
2023-03-31T13:30:56.637Z,6.32
2023-03-31T13:33:29.214Z,7.18
2023-03-31T13:39:22.329Z,4.63
2023-03-31T13:50:52.455Z,6.15
2023-03-31T13:53:59.457Z,5.45
2023-03-31T14:07:49.307Z,4.55
2023-03-31T14:10:35.572Z,4.20
2023-03-31T14:15:56.026Z,3.53
2023-03-31T14:18:34.491Z,3.53
2023-03-31T14:32:46.386Z,3.10
2023-03-31T14:35:39.034Z,3.25
2023-03-31T14:38:11.573Z,3.55
2023-03-31T14:40:51.433Z,2.53
2023-03-31T14:43:22.417Z,2.83
2023-03-31T14:46:14.407Z,2.47
2023-03-31T14:48:45.775Z,2.60
2023-03-31T14:51:16.375Z,2.40
2023-03-31T14:53:43.874Z,2.40
2023-03-31T14:56:17.146Z,2.97
2023-03-31T14:58:48.218Z,2.53
2023-03-31T15:01:19.026Z,2.85
2023-03-31T15:03:47.232Z,2.20
2023-03-31T15:06:15.340Z,3.00
2023-03-31T15:08:43.034Z,3.35
2023-03-31T15:11:15.448Z,3.50
2023-03-31T15:14:00.867Z,4.35
2023-03-31T15:16:47.345Z,2.92
2023-03-31T15:19:20.070Z,3.25
2023-03-31T15:21:56.492Z,2.70
2023-03-31T15:24:24.324Z,2.47
2023-03-31T15:29:45.248Z,3.55
2023-03-31T15:32:16.733Z,2.40
2023-03-31T15:34:46.756Z,2.50
2023-03-31T15:37:14.992Z,1.80
2023-03-31T15:39:45.950Z,2.10
2023-03-31T15:42:13.423Z,2.10
2023-03-31T15:47:20.794Z,2.85
2023-03-31T15:49:55.706Z,3.33
2023-03-31T15:52:28.732Z,3.35
2023-03-31T15:54:56.847Z,2.83
2023-03-31T15:57:33.691Z,2.92
2023-03-31T16:00:02.027Z,2.88
2023-03-31T16:02:47.327Z,4.43
2023-03-31T16:08:19.244Z,4.95
2023-03-31T16:10:46.626Z,4.82
2023-03-31T16:13:23.394Z,4.43
2023-03-31T16:15:52.222Z,4.03
2023-03-31T16:18:34.138Z,2.97
2023-03-31T16:21:04.437Z,2.67
2023-03-31T16:23:33.728Z,3.08
2023-03-31T16:26:01.452Z,3.85
2023-03-31T16:28:31.973Z,3.65
2023-03-31T16:31:02.178Z,3.05
2023-03-31T16:33:31.675Z,3.70
2023-03-31T16:35:59.266Z,3.30
2023-03-31T16:38:28.694Z,3.60
2023-03-31T16:40:58.289Z,2.85
2023-03-31T16:43:28.501Z,2.90
2023-03-31T16:45:57.850Z,3.20
2023-03-31T16:48:26.938Z,3.03
2023-03-31T16:50:57.580Z,3.65
2023-03-31T16:53:27.978Z,3.13
2023-03-31T16:55:56.443Z,3.08
2023-03-31T16:58:24.684Z,2.55
2023-03-31T17:00:52.454Z,2.75
2023-03-31T17:03:20.863Z,2.83
2023-03-31T17:05:53.242Z,2.45
2023-03-31T17:08:22.481Z,2.50
2023-03-31T17:10:53.916Z,3.42
2023-03-31T17:13:22.049Z,2.58
2023-03-31T17:15:49.603Z,3.95
2023-03-31T17:18:18.187Z,2.85
2023-03-31T17:20:45.779Z,3.35
2023-03-31T17:23:13.370Z,3.38
2023-03-31T17:25:48.262Z,3.60
2023-03-31T17:28:15.649Z,3.35
2023-03-31T17:30:44.671Z,3.60
2023-03-31T17:33:12.175Z,2.70
2023-03-31T17:35:39.670Z,2.53
2023-03-31T17:38:07.181Z,3.47
2023-03-31T17:40:35.459Z,3.30
2023-03-31T17:43:04.139Z,3.13
2023-03-31T17:45:32.551Z,2.92
2023-03-31T17:48:00.407Z,2.42
2023-03-31T17:50:28.537Z,2.70
2023-03-31T17:52:56.016Z,2.35
2023-03-31T17:55:23.805Z,2.03
2023-03-31T17:57:51.756Z,2.55
2023-03-31T18:00:19.945Z,2.85
2023-03-31T18:02:47.468Z,2.08
2023-03-31T18:05:17.014Z,2.33
2023-03-31T18:07:45.877Z,1.98
2023-03-31T18:10:13.440Z,2.42
2023-03-31T18:12:41.463Z,2.53
2023-03-31T18:15:10.750Z,2.58
2023-03-31T18:17:38.477Z,2.13
2023-03-31T18:20:06.578Z,2.97
2023-03-31T18:22:33.972Z,2.90
2023-03-31T18:25:01.416Z,3.20
2023-03-31T18:27:29.014Z,3.17
2023-03-31T18:29:56.751Z,3.17
2023-03-31T18:32:24.519Z,2.63
2023-03-31T18:34:52.198Z,2.63
2023-03-31T18:37:19.884Z,2.88
2023-03-31T18:39:47.379Z,2.33
2023-03-31T18:42:14.672Z,2.85
2023-03-31T18:44:42.478Z,2.67
2023-03-31T18:47:10.160Z,2.90
2023-03-31T18:49:37.628Z,3.05
2023-03-31T18:52:05.828Z,2.55
2023-03-31T18:54:33.280Z,2.88
2023-03-31T18:57:02.248Z,3.08
2023-03-31T18:59:29.604Z,2.70
2023-03-31T19:01:57.038Z,2.95
2023-03-31T19:04:24.519Z,2.72
2023-03-31T19:06:53.703Z,2.60
2023-03-31T19:09:23.053Z,2.97
2023-03-31T19:11:50.375Z,3.38
2023-03-31T19:14:18.225Z,3.35
2023-03-31T19:16:45.877Z,3.10
2023-03-31T19:19:13.265Z,3.55
2023-03-31T19:21:41.934Z,2.75
2023-03-31T19:24:09.946Z,3.10
2023-03-31T19:26:37.678Z,3.03
2023-03-31T19:29:05.694Z,3.40
2023-03-31T19:31:38.663Z,3.22
2023-03-31T19:34:06.674Z,2.90
2023-03-31T19:36:34.796Z,3.08
2023-03-31T19:39:02.493Z,2.80
2023-03-31T19:41:29.785Z,3.03
2023-03-31T19:43:57.092Z,3.58
2023-03-31T19:46:25.383Z,3.08
2023-03-31T19:48:52.821Z,3.33
2023-03-31T19:51:20.128Z,3.47
2023-03-31T19:53:47.371Z,3.35
2023-03-31T19:56:17.588Z,3.95
2023-03-31T19:58:45.403Z,4.57
2023-03-31T20:01:20.925Z,4.30
2023-03-31T20:03:53.380Z,4.07
2023-03-31T20:06:24.243Z,4.32
2023-03-31T20:08:54.520Z,4.63
2023-03-31T20:11:21.911Z,4.22
2023-03-31T20:13:49.622Z,4.07
2023-03-31T20:16:20.097Z,4.63
2023-03-31T20:18:54.493Z,4.13
2023-03-31T20:21:24.206Z,3.92
2023-03-31T20:23:51.535Z,4.38
2023-03-31T20:26:24.942Z,3.67
2023-03-31T20:28:54.477Z,3.90
2023-03-31T20:31:25.191Z,3.78
2023-03-31T20:33:53.571Z,4.38
2023-03-31T20:36:24.571Z,4.35
2023-03-31T20:38:54.010Z,4.78
2023-03-31T20:41:24.787Z,4.68
2023-03-31T20:43:52.335Z,5.18
2023-03-31T20:46:20.175Z,4.85
2023-03-31T20:48:51.482Z,5.22
2023-03-31T20:51:22.207Z,5.05
2023-03-31T20:53:53.089Z,5.22
2023-03-31T20:56:23.026Z,4.93
2023-03-31T20:58:51.096Z,5.10
2023-03-31T21:01:18.543Z,4.22
2023-03-31T21:03:46.541Z,4.35
2023-03-31T21:06:15.333Z,4.70
2023-03-31T21:08:45.666Z,5.10
2023-03-31T21:11:14.003Z,5.60
2023-03-31T21:13:41.548Z,5.35
2023-03-31T21:16:08.859Z,5.60
2023-03-31T21:18:37.749Z,5.55
2023-03-31T21:21:08.171Z,4.82
2023-03-31T21:23:35.980Z,5.95
2023-03-31T21:26:04.452Z,5.07
2023-03-31T21:28:33.855Z,5.40
2023-03-31T21:31:05.846Z,5.25
2023-03-31T21:36:01.482Z,4.50
2023-03-31T21:38:28.908Z,4.68
2023-03-31T21:40:56.684Z,5.93
2023-03-31T21:43:24.216Z,5.68
2023-03-31T21:45:53.573Z,5.20
2023-03-31T21:48:25.301Z,5.20
2023-03-31T21:50:54.966Z,5.75
2023-03-31T21:53:23.468Z,5.45
2023-03-31T21:55:52.946Z,4.63
2023-03-31T21:58:20.258Z,5.53
2023-03-31T22:00:47.977Z,4.88
2023-03-31T22:03:26.553Z,5.93
2023-03-31T22:05:56.305Z,5.00
2023-03-31T22:08:23.667Z,5.60
2023-03-31T22:10:52.335Z,5.15
2023-03-31T22:13:21.450Z,4.55
2023-03-31T22:15:48.837Z,5.07
2023-03-31T22:18:17.320Z,5.57
2023-03-31T22:20:45.665Z,4.93
2023-03-31T22:23:13.299Z,5.32
2023-03-31T22:25:40.620Z,5.43
2023-03-31T22:28:09.311Z,4.75
2023-03-31T22:30:37.097Z,4.60
2023-03-31T22:33:04.602Z,6.30
2023-03-31T22:35:32.241Z,5.88
2023-03-31T22:37:59.826Z,4.40
2023-03-31T22:40:29.350Z,5.55
2023-03-31T22:42:58.577Z,4.68
2023-03-31T22:45:26.093Z,4.45
2023-03-31T22:47:53.501Z,5.20
2023-03-31T22:50:21.344Z,4.70
2023-03-31T22:52:48.749Z,4.55
2023-03-31T22:55:16.429Z,4.32
2023-03-31T22:57:43.758Z,5.80
2023-03-31T23:00:13.030Z,5.20
2023-03-31T23:02:41.190Z,5.20
2023-03-31T23:05:09.388Z,5.18
2023-03-31T23:07:36.731Z,5.47
2023-03-31T23:10:04.745Z,4.70
2023-03-31T23:12:32.154Z,5.20
2023-03-31T23:14:59.542Z,3.97
2023-03-31T23:17:27.444Z,4.90
2023-03-31T23:19:54.709Z,4.53
2023-03-31T23:22:22.264Z,4.72
2023-03-31T23:24:49.832Z,5.53
2023-03-31T23:27:17.959Z,4.47
2023-03-31T23:29:46.312Z,4.43
2023-03-31T23:32:14.538Z,4.97
2023-03-31T23:34:42.596Z,5.25
2023-03-31T23:37:11.544Z,4.38
2023-03-31T23:39:39.168Z,3.90
2023-03-31T23:42:07.584Z,5.15
2023-03-31T23:44:38.048Z,5.00
2023-03-31T23:47:05.894Z,5.35
2023-03-31T23:49:33.837Z,4.72
2023-03-31T23:52:01.608Z,4.25
2023-03-31T23:54:29.295Z,4.45
2023-03-31T23:56:56.684Z,4.45
2023-03-31T23:59:24.045Z,5.20
